createdAt,value
2023-04-02T00:01:06.426Z,5.00
2023-04-02T00:03:59.538Z,4.93
2023-04-02T00:06:34.993Z,4.50
2023-04-02T00:09:18.984Z,5.70
2023-04-02T00:11:54.867Z,5.10
2023-04-02T00:14:29.359Z,4.57
2023-04-02T00:17:06.682Z,5.53
2023-04-02T00:19:42.634Z,5.50
2023-04-02T00:22:17.735Z,5.33
2023-04-02T00:24:51.706Z,5.20
2023-04-02T00:27:33.945Z,5.70
2023-04-02T00:30:07.799Z,5.07
2023-04-02T00:32:45.270Z,4.90
2023-04-02T00:35:20.513Z,5.40
2023-04-02T00:37:53.850Z,4.93
2023-04-02T00:40:27.851Z,4.83
2023-04-02T00:43:07.019Z,4.57
2023-04-02T00:45:44.425Z,5.00
2023-04-02T00:48:24.903Z,4.37
2023-04-02T00:50:59.427Z,5.33
2023-04-02T00:53:35.501Z,5.47
2023-04-02T00:56:14.326Z,4.50
2023-04-02T00:58:54.163Z,4.47
2023-04-02T01:01:28.334Z,4.80
2023-04-02T01:04:03.340Z,4.73
2023-04-02T01:06:37.653Z,4.70
2023-04-02T01:09:21.964Z,5.30
2023-04-02T01:12:09.285Z,4.60
2023-04-02T01:14:45.831Z,4.83
2023-04-02T01:17:28.388Z,5.30
2023-04-02T01:20:22.547Z,4.77
2023-04-02T01:22:57.886Z,4.40
2023-04-02T01:25:37.353Z,4.33
2023-04-02T01:28:19.720Z,4.73
2023-04-02T01:30:56.316Z,4.67
2023-04-02T01:33:30.444Z,5.07
2023-04-02T01:36:08.104Z,4.17
2023-04-02T01:38:45.923Z,4.47
2023-04-02T01:41:21.976Z,4.70
2023-04-02T01:44:00.001Z,4.33
2023-04-02T01:46:42.101Z,4.70
2023-04-02T01:49:16.337Z,4.37
2023-04-02T01:51:53.914Z,4.80
2023-04-02T01:54:29.950Z,4.13
2023-04-02T01:57:02.884Z,3.60
2023-04-02T01:59:35.894Z,4.10
2023-04-02T02:02:12.374Z,4.27
2023-04-02T02:04:45.287Z,3.60
2023-04-02T02:07:23.512Z,4.13
2023-04-02T02:09:58.517Z,4.23
2023-04-02T02:12:31.381Z,3.80
2023-04-02T02:15:04.286Z,4.37
2023-04-02T02:17:38.612Z,3.73
2023-04-02T02:20:15.292Z,3.97
2023-04-02T02:22:49.761Z,3.50
2023-04-02T02:25:23.874Z,3.63
2023-04-02T02:28:00.189Z,3.73
2023-04-02T02:30:40.006Z,3.80
2023-04-02T02:33:17.294Z,3.80
2023-04-02T02:35:57.302Z,3.70
2023-04-02T02:38:49.280Z,3.40
2023-04-02T02:41:26.288Z,3.60
2023-04-02T02:44:01.396Z,3.93
2023-04-02T02:46:35.075Z,3.50
2023-04-02T02:49:14.283Z,3.60
2023-04-02T02:51:49.204Z,4.10
2023-04-02T02:54:22.142Z,3.67
2023-04-02T02:56:57.678Z,4.00
2023-04-02T02:59:30.890Z,3.90
2023-04-02T03:02:04.349Z,3.97
2023-04-02T03:04:39.629Z,3.37
2023-04-02T03:07:13.463Z,3.40
2023-04-02T03:09:53.340Z,3.77
2023-04-02T03:12:42.658Z,3.50
2023-04-02T03:15:20.375Z,3.27
2023-04-02T03:17:58.753Z,3.33
2023-04-02T03:20:35.535Z,3.50
2023-04-02T03:23:18.360Z,3.57
2023-04-02T03:25:57.786Z,3.40
2023-04-02T03:28:37.440Z,3.57
2023-04-02T03:31:16.878Z,3.30
2023-04-02T03:33:52.381Z,3.20
2023-04-02T03:36:29.634Z,3.00
2023-04-02T03:39:25.267Z,3.40
2023-04-02T03:42:04.626Z,3.63
2023-04-02T03:44:39.728Z,4.03
2023-04-02T03:47:15.652Z,3.10
2023-04-02T03:49:52.877Z,3.40
2023-04-02T03:52:28.399Z,3.40
2023-04-02T03:55:02.306Z,3.40
2023-04-02T03:57:42.150Z,2.83
2023-04-02T04:00:17.179Z,3.03
2023-04-02T04:02:52.264Z,4.00
2023-04-02T04:05:27.276Z,3.30
2023-04-02T04:08:03.349Z,3.17
2023-04-02T04:10:38.545Z,3.43
2023-04-02T04:13:13.844Z,3.43
2023-04-02T04:15:50.065Z,3.87
2023-04-02T04:18:29.805Z,3.63
2023-04-02T04:21:03.488Z,3.40
2023-04-02T04:23:38.998Z,3.53
2023-04-02T04:26:19.890Z,3.57
2023-04-02T04:28:59.738Z,3.57
2023-04-02T04:31:38.933Z,3.30
2023-04-02T04:34:16.439Z,3.17
2023-04-02T04:36:54.882Z,3.20
2023-04-02T04:39:34.867Z,3.83
2023-04-02T04:42:18.423Z,3.60
2023-04-02T04:44:53.248Z,3.10
2023-04-02T04:47:28.396Z,3.20
2023-04-02T04:50:04.190Z,3.60
2023-04-02T04:52:41.043Z,3.83
2023-04-02T04:55:38.887Z,2.87
2023-04-02T04:58:16.841Z,3.37
2023-04-02T05:00:54.249Z,3.10
2023-04-02T05:03:30.927Z,3.77
2023-04-02T05:06:07.249Z,3.40
2023-04-02T05:08:42.505Z,2.93
2023-04-02T05:11:25.446Z,3.40
2023-04-02T05:13:59.152Z,3.60
2023-04-02T05:16:34.337Z,4.43
2023-04-02T05:19:08.871Z,3.63
2023-04-02T05:21:43.859Z,2.90
2023-04-02T05:24:30.005Z,3.00
2023-04-02T05:27:07.427Z,3.47
2023-04-02T05:29:46.028Z,3.40
2023-04-02T05:32:21.367Z,3.43
2023-04-02T05:34:55.863Z,3.00
2023-04-02T05:37:30.009Z,2.60
2023-04-02T05:40:12.845Z,2.30
2023-04-02T05:42:50.235Z,2.40
2023-04-02T05:45:28.753Z,2.73
2023-04-02T05:48:03.317Z,2.60
2023-04-02T05:50:39.982Z,2.30
2023-04-02T05:53:19.654Z,2.50
2023-04-02T05:55:58.164Z,2.80
2023-04-02T05:58:36.716Z,2.00
2023-04-02T06:01:17.522Z,2.37
2023-04-02T06:03:56.738Z,2.10
2023-04-02T06:06:37.062Z,2.20
2023-04-02T06:09:16.657Z,2.40
2023-04-02T06:11:53.029Z,2.30
2023-04-02T06:14:27.416Z,1.90
2023-04-02T06:17:00.749Z,2.03
2023-04-02T06:19:37.493Z,2.07
2023-04-02T06:22:18.929Z,1.97
2023-04-02T06:24:54.948Z,2.20
2023-04-02T06:27:29.204Z,2.10
2023-04-02T06:30:05.164Z,2.00
2023-04-02T06:32:48.697Z,2.10
2023-04-02T06:35:22.001Z,1.90
2023-04-02T06:38:00.711Z,2.30
2023-04-02T06:40:36.668Z,2.00
2023-04-02T06:43:14.961Z,1.80
2023-04-02T06:45:50.951Z,2.00
2023-04-02T06:48:25.322Z,2.00
2023-04-02T06:51:02.676Z,2.00
2023-04-02T06:53:37.610Z,1.83
2023-04-02T06:56:14.239Z,2.00
2023-04-02T06:58:47.248Z,2.03
2023-04-02T07:01:31.858Z,2.00
2023-04-02T07:04:05.086Z,2.17
2023-04-02T07:06:37.959Z,1.80
2023-04-02T07:09:15.863Z,2.07
2023-04-02T07:11:54.121Z,2.07
2023-04-02T07:14:27.083Z,2.20
2023-04-02T07:17:01.412Z,1.93
2023-04-02T07:19:36.300Z,1.87
2023-04-02T07:22:09.254Z,2.00
2023-04-02T07:24:42.108Z,1.80
2023-04-02T07:27:15.330Z,1.67
2023-04-02T07:29:47.975Z,2.43
2023-04-02T07:32:22.130Z,1.53
2023-04-02T07:34:54.832Z,2.40
2023-04-02T07:37:28.783Z,2.10
2023-04-02T07:40:08.332Z,1.90
2023-04-02T07:42:44.068Z,1.80
2023-04-02T07:45:18.582Z,2.07
2023-04-02T07:47:55.755Z,1.90
2023-04-02T07:50:28.775Z,1.93
2023-04-02T07:53:02.172Z,1.80
2023-04-02T07:55:37.674Z,1.50
2023-04-02T07:58:10.695Z,2.03
2023-04-02T08:00:43.623Z,1.80
2023-04-02T08:03:17.845Z,1.73
2023-04-02T08:05:51.582Z,1.70
2023-04-02T08:08:27.342Z,2.10
2023-04-02T08:11:00.146Z,1.73
2023-04-02T08:13:33.096Z,2.03
2023-04-02T08:16:06.964Z,2.03
2023-04-02T08:18:41.242Z,1.97
2023-04-02T08:21:16.326Z,1.80
2023-04-02T08:23:50.660Z,1.90
2023-04-02T08:26:23.491Z,2.20
2023-04-02T08:28:58.794Z,2.10
2023-04-02T08:31:31.616Z,2.20
2023-04-02T08:34:05.882Z,1.87
2023-04-02T08:36:40.007Z,2.00
2023-04-02T08:39:15.530Z,2.27
2023-04-02T08:41:50.086Z,2.10
2023-04-02T08:44:36.645Z,1.67
2023-04-02T08:47:10.778Z,2.20
2023-04-02T08:49:49.845Z,1.80
2023-04-02T08:52:24.227Z,2.10
2023-04-02T08:54:58.111Z,1.73
2023-04-02T08:57:38.150Z,1.80
2023-04-02T09:00:22.005Z,2.00
2023-04-02T09:02:57.154Z,2.00
2023-04-02T09:05:34.101Z,2.13
2023-04-02T09:08:16.227Z,2.70
2023-04-02T09:10:54.398Z,1.67
2023-04-02T09:13:28.086Z,1.93
2023-04-02T09:16:04.865Z,2.30
2023-04-02T09:18:38.302Z,1.93
2023-04-02T09:21:28.166Z,1.93
2023-04-02T09:24:06.317Z,1.47
2023-04-02T09:26:40.264Z,2.27
2023-04-02T09:29:31.267Z,2.20
2023-04-02T09:32:10.185Z,2.13
2023-04-02T09:34:42.946Z,2.20
2023-04-02T09:37:18.120Z,1.70
2023-04-02T09:39:53.887Z,2.00
2023-04-02T09:42:31.673Z,1.73
2023-04-02T09:45:17.727Z,1.53
2023-04-02T09:47:51.281Z,1.80
2023-04-02T09:50:26.637Z,1.80
2023-04-02T09:53:17.582Z,1.90
2023-04-02T09:55:50.475Z,1.63
2023-04-02T09:58:29.335Z,1.80
2023-04-02T10:01:02.297Z,1.93
2023-04-02T10:03:35.572Z,1.93
2023-04-02T10:06:16.066Z,1.50
2023-04-02T10:08:55.767Z,1.97
2023-04-02T10:11:36.501Z,1.90
2023-04-02T10:14:20.377Z,2.10
2023-04-02T10:16:54.731Z,1.70
2023-04-02T10:19:38.500Z,2.10
2023-04-02T10:22:14.872Z,2.10
2023-04-02T10:25:14.149Z,2.03
2023-04-02T10:27:50.514Z,1.90
2023-04-02T10:30:25.011Z,1.70
2023-04-02T10:33:04.596Z,2.00
2023-04-02T10:35:42.410Z,1.80
2023-04-02T10:38:27.524Z,1.80
2023-04-02T10:41:08.532Z,1.70
2023-04-02T10:44:19.663Z,1.63
2023-04-02T10:46:59.878Z,1.80
2023-04-02T10:49:36.454Z,2.13
2023-04-02T10:52:13.509Z,1.80
2023-04-02T10:54:49.040Z,2.33
2023-04-02T10:57:32.834Z,1.87
2023-04-02T11:00:15.946Z,1.73
2023-04-02T11:02:51.769Z,1.63
2023-04-02T11:05:32.263Z,1.33
2023-04-02T11:08:07.876Z,1.80
2023-04-02T11:10:45.136Z,1.80
2023-04-02T11:13:24.775Z,2.10
2023-04-02T11:15:57.916Z,2.03
2023-04-02T11:18:35.807Z,1.87
2023-04-02T11:21:38.175Z,1.90
2023-04-02T11:24:24.978Z,2.40
2023-04-02T11:27:05.108Z,2.83
2023-04-02T11:29:51.307Z,2.10
2023-04-02T11:32:29.285Z,1.70
2023-04-02T11:35:25.441Z,2.10
2023-04-02T11:38:09.380Z,2.83
2023-04-02T11:40:50.718Z,1.90
2023-04-02T11:43:46.373Z,1.90
2023-04-02T11:46:47.590Z,1.93
2023-04-02T11:49:37.825Z,1.97
2023-04-02T11:52:21.846Z,1.90
2023-04-02T11:55:05.879Z,2.53
2023-04-02T11:57:45.978Z,2.10
2023-04-02T12:00:24.562Z,2.20
2023-04-02T12:03:04.374Z,1.60
2023-04-02T12:05:43.093Z,2.07
2023-04-02T12:08:25.395Z,1.80
2023-04-02T12:11:02.530Z,1.80
2023-04-02T12:13:53.050Z,1.83
2023-04-02T12:16:34.238Z,1.40
2023-04-02T12:19:09.760Z,1.60
2023-04-02T12:21:49.204Z,1.43
2023-04-02T12:24:23.588Z,1.77
2023-04-02T12:27:08.574Z,1.70
2023-04-02T12:29:41.404Z,1.90
2023-04-02T12:32:20.636Z,1.67
2023-04-02T12:34:55.741Z,1.90
2023-04-02T12:37:33.251Z,2.87
2023-04-02T12:40:17.777Z,2.13
2023-04-02T12:42:50.573Z,1.80
2023-04-02T12:45:26.175Z,1.53
2023-04-02T12:48:05.172Z,1.50
2023-04-02T12:50:41.713Z,1.80
2023-04-02T12:53:20.522Z,1.60
2023-04-02T12:56:01.900Z,1.60
2023-04-02T12:58:36.754Z,1.60
2023-04-02T13:01:16.041Z,1.53
2023-04-02T13:04:03.916Z,1.60
2023-04-02T13:06:37.142Z,1.50
2023-04-02T13:09:25.913Z,1.90
2023-04-02T13:12:01.921Z,1.77
2023-04-02T13:14:34.807Z,1.50
2023-04-02T13:17:22.437Z,2.10
2023-04-02T13:19:55.234Z,1.47
2023-04-02T13:22:31.848Z,1.47
2023-04-02T13:25:05.056Z,1.47
2023-04-02T13:27:39.228Z,1.60
2023-04-02T13:30:18.628Z,1.60
2023-04-02T13:32:51.701Z,1.43
2023-04-02T13:35:24.700Z,1.30
2023-04-02T13:37:57.655Z,1.40
2023-04-02T13:40:39.894Z,1.60
2023-04-02T13:43:20.382Z,2.23
2023-04-02T13:45:57.691Z,1.53
2023-04-02T13:48:31.163Z,1.77
2023-04-02T13:51:03.956Z,1.70
2023-04-02T13:53:37.051Z,1.60
2023-04-02T13:56:16.119Z,1.93
2023-04-02T13:58:50.354Z,1.23
2023-04-02T14:01:24.009Z,1.80
2023-04-02T14:03:57.993Z,1.57
2023-04-02T14:06:39.211Z,5.80
2023-04-02T14:09:17.909Z,1.33
2023-04-02T14:11:54.855Z,1.20
2023-04-02T14:14:36.944Z,1.50
2023-04-02T14:17:14.180Z,1.70
2023-04-02T14:19:55.796Z,1.70
2023-04-02T14:22:39.819Z,1.37
2023-04-02T14:25:17.211Z,1.47
2023-04-02T14:27:54.307Z,1.40
2023-04-02T14:30:34.519Z,1.30
2023-04-02T14:33:14.449Z,1.37
2023-04-02T14:35:48.578Z,1.83
2023-04-02T14:38:26.018Z,1.20
2023-04-02T14:41:01.834Z,1.50
2023-04-02T14:43:38.470Z,1.97
2023-04-02T14:46:15.936Z,1.20
2023-04-02T14:48:52.828Z,1.53
2023-04-02T14:51:27.592Z,1.63
2023-04-02T14:54:02.911Z,2.00
2023-04-02T14:56:39.187Z,2.07
2023-04-02T14:59:25.524Z,1.70
2023-04-02T15:02:01.686Z,1.60
2023-04-02T15:04:37.189Z,1.20
2023-04-02T15:07:14.996Z,1.47
2023-04-02T15:09:50.505Z,5.00
2023-04-02T15:12:33.770Z,2.03
2023-04-02T15:15:13.862Z,1.43
2023-04-02T15:17:50.159Z,1.43
2023-04-02T15:20:23.105Z,1.53
2023-04-02T15:23:00.305Z,1.50
2023-04-02T15:25:40.015Z,1.83
2023-04-02T15:28:20.097Z,1.67
2023-04-02T15:30:54.233Z,1.37
2023-04-02T15:33:34.832Z,1.40
2023-04-02T15:36:26.691Z,1.30
2023-04-02T15:39:05.385Z,1.60
2023-04-02T15:41:40.019Z,1.87
2023-04-02T15:44:15.029Z,1.43
2023-04-02T15:47:02.985Z,1.50
2023-04-02T15:49:42.709Z,1.40
2023-04-02T15:52:22.597Z,1.60
2023-04-02T15:54:59.809Z,1.40
2023-04-02T15:57:53.157Z,1.47
2023-04-02T16:00:28.220Z,1.57
2023-04-02T16:03:25.042Z,1.87
2023-04-02T16:06:12.976Z,1.37
2023-04-02T16:08:57.025Z,1.47
2023-04-02T16:11:39.494Z,1.83
2023-04-02T16:14:18.747Z,2.63
2023-04-02T16:16:52.750Z,3.20
2023-04-02T16:19:28.274Z,1.63
2023-04-02T16:22:06.209Z,2.00
2023-04-02T16:24:39.682Z,2.03
2023-04-02T16:27:18.862Z,1.40
2023-04-02T16:29:59.185Z,1.20
2023-04-02T16:32:46.857Z,1.37
2023-04-02T16:35:41.619Z,1.43
2023-04-02T16:38:25.468Z,1.70
2023-04-02T16:41:09.306Z,1.80
2023-04-02T16:43:45.855Z,1.73
2023-04-02T16:46:38.110Z,1.70
2023-04-02T16:49:20.169Z,1.90
2023-04-02T16:51:57.577Z,1.40
2023-04-02T16:54:34.549Z,1.20
2023-04-02T16:57:14.905Z,1.30
2023-04-02T16:59:56.314Z,1.40
2023-04-02T17:02:42.202Z,1.30
2023-04-02T17:05:23.085Z,1.33
2023-04-02T17:08:01.652Z,1.10
2023-04-02T17:10:40.549Z,1.67
2023-04-02T17:13:17.946Z,1.80
2023-04-02T17:15:52.266Z,1.80
2023-04-02T17:18:26.392Z,1.43
2023-04-02T17:21:03.249Z,1.83
2023-04-02T17:23:55.181Z,1.80
2023-04-02T17:26:32.228Z,1.73
2023-04-02T17:29:08.002Z,1.87
2023-04-02T17:31:43.174Z,1.50
2023-04-02T17:34:23.922Z,2.00
2023-04-02T17:37:00.987Z,1.70
2023-04-02T17:39:39.232Z,1.93
2023-04-02T17:42:19.538Z,1.40
2023-04-02T17:44:57.250Z,2.53
2023-04-02T17:47:34.838Z,2.00
2023-04-02T17:50:23.491Z,2.23
2023-04-02T17:53:01.170Z,2.03
2023-04-02T17:55:44.496Z,1.87
2023-04-02T17:58:24.481Z,2.03
2023-04-02T18:01:01.535Z,1.73
2023-04-02T18:04:01.054Z,2.10
2023-04-02T18:06:40.595Z,1.97
2023-04-02T18:09:22.087Z,2.10
2023-04-02T18:12:03.950Z,2.07
2023-04-02T18:14:44.554Z,2.57
2023-04-02T18:17:22.279Z,2.00
2023-04-02T18:19:58.066Z,1.97
2023-04-02T18:22:33.830Z,2.10
2023-04-02T18:25:17.486Z,2.53
2023-04-02T18:27:56.067Z,2.07
2023-04-02T18:30:35.994Z,1.90
2023-04-02T18:33:20.359Z,2.17
2023-04-02T18:35:59.681Z,2.37
2023-04-02T18:38:35.445Z,2.27
2023-04-02T18:41:32.847Z,2.27
2023-04-02T18:44:09.824Z,2.20
2023-04-02T18:46:48.962Z,2.13
2023-04-02T18:49:25.996Z,2.30
2023-04-02T18:52:01.109Z,2.40
2023-04-02T18:54:35.254Z,2.23
2023-04-02T18:57:16.606Z,1.30
2023-04-02T18:59:52.289Z,1.67
2023-04-02T19:02:35.893Z,3.00
2023-04-02T19:05:15.972Z,2.13
2023-04-02T19:07:50.698Z,2.47
2023-04-02T19:10:33.668Z,2.83
2023-04-02T19:13:09.128Z,2.00
2023-04-02T19:15:49.032Z,2.50
2023-04-02T19:18:26.593Z,2.07
2023-04-02T19:21:01.942Z,2.43
2023-04-02T19:23:46.495Z,2.00
2023-04-02T19:26:22.720Z,3.00
2023-04-02T19:28:59.934Z,1.97
2023-04-02T19:31:38.259Z,2.30
2023-04-02T19:34:18.375Z,2.57
2023-04-02T19:36:54.587Z,2.57
2023-04-02T19:39:54.494Z,2.20
2023-04-02T19:42:44.969Z,1.87
2023-04-02T19:45:29.551Z,2.77
2023-04-02T19:48:04.350Z,2.23
2023-04-02T19:50:38.765Z,2.73
2023-04-02T19:53:11.600Z,2.30
2023-04-02T19:55:47.342Z,2.17
2023-04-02T19:58:27.370Z,2.30
2023-04-02T20:01:09.084Z,2.53
2023-04-02T20:03:41.891Z,2.10
2023-04-02T20:06:19.721Z,2.17
2023-04-02T20:08:54.373Z,2.23
2023-04-02T20:11:28.461Z,2.20
2023-04-02T20:14:04.255Z,2.40
2023-04-02T20:16:38.666Z,2.40
2023-04-02T20:19:11.532Z,2.23
2023-04-02T20:21:49.041Z,2.27
2023-04-02T20:24:21.823Z,2.27
2023-04-02T20:26:56.458Z,2.20
2023-04-02T20:29:31.682Z,2.10
2023-04-02T20:32:11.406Z,2.30
2023-04-02T20:34:45.474Z,1.90
2023-04-02T20:37:24.228Z,2.70
2023-04-02T20:39:57.844Z,2.00
2023-04-02T20:42:31.174Z,2.77
2023-04-02T20:45:05.106Z,2.17
2023-04-02T20:47:38.447Z,2.13
2023-04-02T20:50:11.790Z,2.67
2023-04-02T20:52:50.572Z,2.43
2023-04-02T20:55:23.267Z,2.27
2023-04-02T20:57:56.073Z,1.97
2023-04-02T21:00:31.235Z,2.40
2023-04-02T21:03:04.181Z,2.60
2023-04-02T21:05:43.706Z,2.13
2023-04-02T21:08:17.926Z,2.33
2023-04-02T21:10:53.723Z,2.07
2023-04-02T21:13:29.311Z,1.67
2023-04-02T21:16:02.039Z,2.10
2023-04-02T21:18:35.074Z,2.63
2023-04-02T21:21:08.705Z,1.67
2023-04-02T21:23:45.972Z,1.93
2023-04-02T21:26:20.696Z,2.00
2023-04-02T21:28:53.895Z,2.50
2023-04-02T21:31:37.702Z,1.90
2023-04-02T21:34:13.522Z,2.30
2023-04-02T21:36:48.649Z,2.20
2023-04-02T21:39:23.950Z,2.00
2023-04-02T21:42:03.923Z,2.00
2023-04-02T21:44:36.917Z,1.60
2023-04-02T21:47:15.258Z,2.00
2023-04-02T21:49:48.071Z,2.13
2023-04-02T21:52:20.854Z,1.77
2023-04-02T21:54:57.013Z,2.07
2023-04-02T21:57:33.067Z,2.07
2023-04-02T22:00:09.106Z,2.10
2023-04-02T22:02:42.001Z,2.23
2023-04-02T22:05:15.045Z,2.30
2023-04-02T22:07:49.873Z,2.37
2023-04-02T22:10:29.012Z,2.30
2023-04-02T22:13:02.407Z,2.10
2023-04-02T22:15:35.645Z,2.20
2023-04-02T22:18:08.622Z,2.30
2023-04-02T22:20:44.575Z,3.57
2023-04-02T22:23:28.484Z,4.60
2023-04-02T22:26:05.679Z,3.40
2023-04-02T22:28:40.798Z,2.17
2023-04-02T22:31:15.013Z,2.20
2023-04-02T22:33:47.952Z,2.27
2023-04-02T22:36:24.651Z,2.30
2023-04-02T22:39:00.258Z,3.13
2023-04-02T22:41:34.502Z,1.90
2023-04-02T22:44:07.337Z,1.90
2023-04-02T22:46:40.526Z,2.13
2023-04-02T22:49:18.826Z,2.00
2023-04-02T22:51:51.632Z,1.70
2023-04-02T22:54:24.286Z,2.27
2023-04-02T22:56:58.615Z,2.07
2023-04-02T22:59:32.623Z,2.17
2023-04-02T23:02:05.637Z,2.13
2023-04-02T23:04:38.653Z,2.27
2023-04-02T23:07:11.598Z,2.10
2023-04-02T23:09:44.312Z,2.03
2023-04-02T23:12:18.561Z,2.00
2023-04-02T23:14:56.961Z,2.00
2023-04-02T23:17:29.714Z,1.90
2023-04-02T23:20:02.458Z,2.40
2023-04-02T23:22:36.817Z,2.20
2023-04-02T23:25:09.741Z,1.90
2023-04-02T23:27:45.152Z,2.40
2023-04-02T23:30:18.151Z,2.07
2023-04-02T23:32:51.142Z,2.10
2023-04-02T23:35:23.918Z,2.43
2023-04-02T23:37:57.094Z,1.97
2023-04-02T23:40:29.825Z,2.03
2023-04-02T23:43:06.401Z,2.10
2023-04-02T23:45:39.154Z,2.00
2023-04-02T23:48:11.905Z,2.40
2023-04-02T23:50:45.117Z,2.30
2023-04-02T23:53:20.260Z,2.50
2023-04-02T23:55:52.909Z,2.57
2023-04-02T23:58:27.280Z,2.70
